This is the latest recevied weather packets stored in our database for station/object KE5VT. If no packets are shown the sender has not sent any weather packets the latest 10 day(s).
| Time | Temp. | Humidity | Pressure | Rain* | Wind** | Luminosity | Snow |
|---|---|---|---|---|---|---|---|
| 1788112793 | 27.22° C | 80% | 1018.7 hPa | 0 mm | - | 734 W/m² | - |
| 1788112493 | 27.78° C | 81% | 1018.8 hPa | 0 mm | - | 556 W/m² | - |
| 1788112188 | 27.78° C | 80% | 1018.9 hPa | 0 mm | - | 785 W/m² | - |
| 1788111884 | 27.22° C | 81% | 1019 hPa | 0 mm | - | 775 W/m² | - |
| 1788111578 | 26.11° C | 83% | 1019.1 hPa | 0 mm | - | 719 W/m² | - |
| 1788111274 | 26.11° C | 84% | 1019.2 hPa | 0 mm | - | 300 W/m² | - |
| 1788110970 | 26.11° C | 84% | 1019.3 hPa | 0 mm | - | 321 W/m² | - |
| 1788110666 | 26.11° C | 86% | 1019.5 hPa | 0 mm | - | 283 W/m² | - |
| 1788110367 | 26.11° C | 86% | 1019.5 hPa | 0 mm | - | 290 W/m² | - |
| 1788110062 | 26.67° C | 85% | 1019.5 hPa | 0 mm | - | 308 W/m² | - |
| 1788109763 | 26.67° C | 85% | 1019.6 hPa | 0 mm | - | 320 W/m² | - |
| 1788109462 | 26.11° C | 86% | 1019.6 hPa | 0 mm | - | 282 W/m² | - |
| 1788109160 | 26.11° C | 85% | 1019.4 hPa | 0 mm | - | 652 W/m² | - |
| 1788108857 | 26.11° C | 87% | 1019.6 hPa | 0 mm | - | 371 W/m² | - |
| 1788108553 | 25.56° C | 87% | 1019.5 hPa | 0 mm | - | 675 W/m² | - |
| 1788108248 | 25.56° C | 88% | 1019.6 hPa | 0 mm | - | 289 W/m² | - |
| 1788107945 | 25.56° C | 88% | 1019.6 hPa | 0 mm | - | 636 W/m² | - |
| 1788107641 | 25.56° C | 88% | 1019.8 hPa | 0 mm | - | 209 W/m² | - |
| 1788107340 | 25.56° C | 88% | 1019.6 hPa | 0 mm | - | 262 W/m² | - |
| 1788107036 | 25.56° C | 88% | 1019.7 hPa | 0 mm | - | 255 W/m² | - |
| 1788106731 | 25° C | 88% | 1019.8 hPa | 0 mm | - | 222 W/m² | - |
| 1788106430 | 25.56° C | 87% | 1019.9 hPa | 0 mm | - | 218 W/m² | - |
| 1788106126 | 25° C | 87% | 1019.9 hPa | 0 mm | - | 223 W/m² | - |
| 1788105822 | 25.56° C | 88% | 1019.9 hPa | 0 mm | - | 183 W/m² | - |
| 1788105517 | 25.56° C | 88% | 1019.9 hPa | 0 mm | - | 233 W/m² | - |
* Rain latest hour (hover to see other rain measurements)
** Current wind speed in m/s (hover to see current wind gust speed)